sensor_id;sensor_type;location;lat;lon;timestamp;P1;durP1;ratioP1;P2;durP2;ratioP2
3667;SDS011;24099;47.102;15.440;2023-07-02T00:00:08;3.78;;;1.73;;
3667;SDS011;24099;47.102;15.440;2023-07-02T00:02:36;3.92;;;1.25;;
3667;SDS011;24099;47.102;15.440;2023-07-02T00:05:04;4.88;;;1.75;;
3667;SDS011;24099;47.102;15.440;2023-07-02T00:07:32;3.45;;;1.48;;
3667;SDS011;24099;47.102;15.440;2023-07-02T00:10:02;2.03;;;1.27;;
3667;SDS011;24099;47.102;15.440;2023-07-02T00:12:30;2.90;;;1.20;;
3667;SDS011;24099;47.102;15.440;2023-07-02T00:14:58;4.05;;;1.90;;
3667;SDS011;24099;47.102;15.440;2023-07-02T00:17:28;2.63;;;1.33;;
3667;SDS011;24099;47.102;15.440;2023-07-02T00:19:55;3.05;;;1.40;;
3667;SDS011;24099;47.102;15.440;2023-07-02T00:22:31;1.80;;;1.20;;
3667;SDS011;24099;47.102;15.440;2023-07-02T00:25:03;2.55;;;1.25;;
3667;SDS011;24099;47.102;15.440;2023-07-02T00:27:31;4.32;;;1.20;;
3667;SDS011;24099;47.102;15.440;2023-07-02T00:29:58;2.97;;;1.63;;
3667;SDS011;24099;47.102;15.440;2023-07-02T00:32:26;4.13;;;1.73;;
3667;SDS011;24099;47.102;15.440;2023-07-02T00:34:54;4.35;;;1.50;;
3667;SDS011;24099;47.102;15.440;2023-07-02T00:37:21;3.53;;;1.35;;
3667;SDS011;24099;47.102;15.440;2023-07-02T00:39:49;2.00;;;1.50;;
3667;SDS011;24099;47.102;15.440;2023-07-02T00:42:22;3.42;;;1.30;;
3667;SDS011;24099;47.102;15.440;2023-07-02T00:45:04;7.32;;;2.28;;
3667;SDS011;24099;47.102;15.440;2023-07-02T00:47:32;2.10;;;1.50;;
3667;SDS011;24099;47.102;15.440;2023-07-02T00:50:01;3.47;;;1.67;;
3667;SDS011;24099;47.102;15.440;2023-07-02T00:52:28;2.60;;;1.20;;
3667;SDS011;24099;47.102;15.440;2023-07-02T00:54:56;1.70;;;1.50;;
3667;SDS011;24099;47.102;15.440;2023-07-02T00:57:25;1.73;;;1.20;;
3667;SDS011;24099;47.102;15.440;2023-07-02T00:59:55;2.78;;;1.58;;
3667;SDS011;24099;47.102;15.440;2023-07-02T01:02:25;3.17;;;1.75;;
3667;SDS011;24099;47.102;15.440;2023-07-02T01:04:57;4.90;;;1.88;;
3667;SDS011;24099;47.102;15.440;2023-07-02T01:07:25;2.17;;;1.52;;
3667;SDS011;24099;47.102;15.440;2023-07-02T01:09:52;4.25;;;1.92;;
3667;SDS011;24099;47.102;15.440;2023-07-02T01:12:20;2.78;;;1.70;;
3667;SDS011;24099;47.102;15.440;2023-07-02T01:14:50;1.80;;;1.40;;
3667;SDS011;24099;47.102;15.440;2023-07-02T01:17:19;2.28;;;1.65;;
3667;SDS011;24099;47.102;15.440;2023-07-02T01:19:48;2.10;;;1.63;;
3667;SDS011;24099;47.102;15.440;2023-07-02T01:22:18;5.07;;;1.42;;
3667;SDS011;24099;47.102;15.440;2023-07-02T01:24:46;2.08;;;1.35;;
3667;SDS011;24099;47.102;15.440;2023-07-02T01:27:15;5.88;;;2.28;;
3667;SDS011;24099;47.102;15.440;2023-07-02T01:29:42;2.80;;;1.65;;
3667;SDS011;24099;47.102;15.440;2023-07-02T01:32:12;3.25;;;1.73;;
3667;SDS011;24099;47.102;15.440;2023-07-02T01:34:40;2.72;;;1.63;;
3667;SDS011;24099;47.102;15.440;2023-07-02T01:37:10;2.67;;;1.63;;
3667;SDS011;24099;47.102;15.440;2023-07-02T01:39:38;2.70;;;1.63;;
3667;SDS011;24099;47.102;15.440;2023-07-02T01:42:09;2.33;;;1.50;;
3667;SDS011;24099;47.102;15.440;2023-07-02T01:44:37;2.13;;;1.55;;
3667;SDS011;24099;47.102;15.440;2023-07-02T01:47:05;2.92;;;1.77;;
3667;SDS011;24099;47.102;15.440;2023-07-02T01:49:33;3.20;;;1.70;;
3667;SDS011;24099;47.102;15.440;2023-07-02T01:52:01;3.50;;;1.83;;
3667;SDS011;24099;47.102;15.440;2023-07-02T01:54:31;3.67;;;1.80;;
3667;SDS011;24099;47.102;15.440;2023-07-02T01:56:58;5.43;;;1.85;;
3667;SDS011;24099;47.102;15.440;2023-07-02T01:59:26;3.42;;;1.60;;
3667;SDS011;24099;47.102;15.440;2023-07-02T02:01:54;2.40;;;1.63;;
3667;SDS011;24099;47.102;15.440;2023-07-02T02:04:21;2.45;;;1.50;;
3667;SDS011;24099;47.102;15.440;2023-07-02T02:06:49;4.40;;;1.67;;
3667;SDS011;24099;47.102;15.440;2023-07-02T02:09:18;3.15;;;1.85;;
3667;SDS011;24099;47.102;15.440;2023-07-02T02:11:48;2.95;;;1.90;;
3667;SDS011;24099;47.102;15.440;2023-07-02T02:14:16;3.45;;;1.92;;
3667;SDS011;24099;47.102;15.440;2023-07-02T02:16:43;2.33;;;1.70;;
3667;SDS011;24099;47.102;15.440;2023-07-02T02:19:12;6.85;;;1.67;;
3667;SDS011;24099;47.102;15.440;2023-07-02T02:21:43;1.63;;;1.40;;
3667;SDS011;24099;47.102;15.440;2023-07-02T02:24:10;3.25;;;1.60;;
3667;SDS011;24099;47.102;15.440;2023-07-02T02:26:38;6.15;;;1.85;;
3667;SDS011;24099;47.102;15.440;2023-07-02T02:29:07;5.60;;;1.80;;
3667;SDS011;24099;47.102;15.440;2023-07-02T02:31:35;4.60;;;1.73;;
3667;SDS011;24099;47.102;15.440;2023-07-02T02:34:03;2.50;;;1.50;;
3667;SDS011;24099;47.102;15.440;2023-07-02T02:36:30;3.13;;;1.80;;
3667;SDS011;24099;47.102;15.440;2023-07-02T02:38:59;3.95;;;1.70;;
3667;SDS011;24099;47.102;15.440;2023-07-02T02:41:28;2.97;;;1.60;;
3667;SDS011;24099;47.102;15.440;2023-07-02T02:43:56;3.95;;;1.77;;
3667;SDS011;24099;47.102;15.440;2023-07-02T02:46:25;2.20;;;1.50;;
3667;SDS011;24099;47.102;15.440;2023-07-02T02:48:53;2.80;;;1.90;;
3667;SDS011;24099;47.102;15.440;2023-07-02T02:51:23;3.10;;;1.95;;
3667;SDS011;24099;47.102;15.440;2023-07-02T02:53:51;3.15;;;1.60;;
3667;SDS011;24099;47.102;15.440;2023-07-02T02:56:18;3.60;;;1.83;;
3667;SDS011;24099;47.102;15.440;2023-07-02T02:58:46;3.25;;;1.70;;
3667;SDS011;24099;47.102;15.440;2023-07-02T03:01:13;3.70;;;1.65;;
3667;SDS011;24099;47.102;15.440;2023-07-02T03:03:42;2.33;;;1.75;;
3667;SDS011;24099;47.102;15.440;2023-07-02T03:06:12;4.07;;;1.65;;
3667;SDS011;24099;47.102;15.440;2023-07-02T03:08:40;4.82;;;1.90;;
3667;SDS011;24099;47.102;15.440;2023-07-02T03:11:10;3.17;;;1.77;;
3667;SDS011;24099;47.102;15.440;2023-07-02T03:13:38;2.45;;;1.75;;
3667;SDS011;24099;47.102;15.440;2023-07-02T03:16:07;3.63;;;1.85;;
3667;SDS011;24099;47.102;15.440;2023-07-02T03:18:43;3.10;;;1.83;;
3667;SDS011;24099;47.102;15.440;2023-07-02T03:21:10;4.25;;;1.67;;
3667;SDS011;24099;47.102;15.440;2023-07-02T03:23:38;2.78;;;2.00;;
3667;SDS011;24099;47.102;15.440;2023-07-02T03:26:06;3.15;;;1.98;;
3667;SDS011;24099;47.102;15.440;2023-07-02T03:28:36;3.38;;;2.20;;
3667;SDS011;24099;47.102;15.440;2023-07-02T03:31:04;2.45;;;1.77;;
3667;SDS011;24099;47.102;15.440;2023-07-02T03:36:34;6.45;;;2.05;;
3667;SDS011;24099;47.102;15.440;2023-07-02T03:39:05;3.35;;;1.95;;
3667;SDS011;24099;47.102;15.440;2023-07-02T03:41:33;2.85;;;1.80;;
3667;SDS011;24099;47.102;15.440;2023-07-02T03:44:07;3.25;;;1.98;;
3667;SDS011;24099;47.102;15.440;2023-07-02T03:46:34;2.90;;;1.63;;
3667;SDS011;24099;47.102;15.440;2023-07-02T03:49:02;4.80;;;1.80;;
3667;SDS011;24099;47.102;15.440;2023-07-02T03:51:34;3.60;;;1.92;;
3667;SDS011;24099;47.102;15.440;2023-07-02T03:54:02;3.08;;;1.77;;
3667;SDS011;24099;47.102;15.440;2023-07-02T03:56:29;3.85;;;2.30;;
3667;SDS011;24099;47.102;15.440;2023-07-02T03:59:00;1.98;;;1.77;;
3667;SDS011;24099;47.102;15.440;2023-07-02T04:01:27;2.78;;;1.90;;
3667;SDS011;24099;47.102;15.440;2023-07-02T04:07:36;6.07;;;2.10;;
3667;SDS011;24099;47.102;15.440;2023-07-02T04:10:46;4.75;;;2.03;;
3667;SDS011;24099;47.102;15.440;2023-07-02T04:13:14;2.85;;;1.98;;
3667;SDS011;24099;47.102;15.440;2023-07-02T04:15:45;3.88;;;2.30;;
3667;SDS011;24099;47.102;15.440;2023-07-02T04:18:12;2.65;;;1.85;;
3667;SDS011;24099;47.102;15.440;2023-07-02T04:20:40;6.30;;;2.55;;
3667;SDS011;24099;47.102;15.440;2023-07-02T04:23:09;2.60;;;2.08;;
3667;SDS011;24099;47.102;15.440;2023-07-02T04:25:40;4.70;;;2.25;;
3667;SDS011;24099;47.102;15.440;2023-07-02T04:28:33;3.88;;;2.20;;
3667;SDS011;24099;47.102;15.440;2023-07-02T04:31:12;3.13;;;2.00;;
3667;SDS011;24099;47.102;15.440;2023-07-02T04:33:40;3.20;;;2.35;;
3667;SDS011;24099;47.102;15.440;2023-07-02T04:36:08;5.72;;;2.30;;
3667;SDS011;24099;47.102;15.440;2023-07-02T04:38:37;3.08;;;2.10;;
3667;SDS011;24099;47.102;15.440;2023-07-02T04:41:06;3.10;;;2.00;;
3667;SDS011;24099;47.102;15.440;2023-07-02T04:43:35;4.80;;;2.95;;
3667;SDS011;24099;47.102;15.440;2023-07-02T04:46:03;3.40;;;2.13;;
3667;SDS011;24099;47.102;15.440;2023-07-02T04:48:32;3.10;;;2.00;;
3667;SDS011;24099;47.102;15.440;2023-07-02T04:51:00;4.18;;;2.40;;
3667;SDS011;24099;47.102;15.440;2023-07-02T04:53:28;3.67;;;2.65;;
3667;SDS011;24099;47.102;15.440;2023-07-02T04:55:57;3.28;;;2.08;;
3667;SDS011;24099;47.102;15.440;2023-07-02T04:58:24;3.50;;;2.13;;
3667;SDS011;24099;47.102;15.440;2023-07-02T05:00:52;2.67;;;2.17;;
3667;SDS011;24099;47.102;15.440;2023-07-02T05:03:20;2.80;;;2.08;;
3667;SDS011;24099;47.102;15.440;2023-07-02T05:06:01;3.33;;;2.00;;
3667;SDS011;24099;47.102;15.440;2023-07-02T05:08:54;3.47;;;1.88;;
3667;SDS011;24099;47.102;15.440;2023-07-02T05:11:23;3.50;;;1.98;;
3667;SDS011;24099;47.102;15.440;2023-07-02T05:13:54;6.18;;;2.88;;
3667;SDS011;24099;47.102;15.440;2023-07-02T05:16:23;3.58;;;2.50;;
3667;SDS011;24099;47.102;15.440;2023-07-02T05:18:51;3.15;;;2.42;;
3667;SDS011;24099;47.102;15.440;2023-07-02T05:21:19;4.13;;;2.40;;
3667;SDS011;24099;47.102;15.440;2023-07-02T05:23:50;3.92;;;2.65;;
3667;SDS011;24099;47.102;15.440;2023-07-02T05:26:18;3.63;;;2.45;;
3667;SDS011;24099;47.102;15.440;2023-07-02T05:28:55;3.80;;;2.30;;
3667;SDS011;24099;47.102;15.440;2023-07-02T05:31:22;2.50;;;1.92;;
3667;SDS011;24099;47.102;15.440;2023-07-02T05:33:57;3.75;;;2.40;;
3667;SDS011;24099;47.102;15.440;2023-07-02T05:36:25;5.47;;;2.90;;
3667;SDS011;24099;47.102;15.440;2023-07-02T05:38:58;4.95;;;2.70;;
3667;SDS011;24099;47.102;15.440;2023-07-02T05:41:31;4.05;;;2.53;;
3667;SDS011;24099;47.102;15.440;2023-07-02T05:44:09;3.58;;;2.55;;
3667;SDS011;24099;47.102;15.440;2023-07-02T05:46:37;4.05;;;2.80;;
3667;SDS011;24099;47.102;15.440;2023-07-02T05:49:07;5.05;;;2.72;;
3667;SDS011;24099;47.102;15.440;2023-07-02T05:51:35;3.75;;;2.85;;
3667;SDS011;24099;47.102;15.440;2023-07-02T05:54:03;5.10;;;3.08;;
3667;SDS011;24099;47.102;15.440;2023-07-02T05:56:30;4.90;;;3.17;;
3667;SDS011;24099;47.102;15.440;2023-07-02T05:58:58;4.03;;;2.78;;
3667;SDS011;24099;47.102;15.440;2023-07-02T06:01:27;5.97;;;2.78;;
3667;SDS011;24099;47.102;15.440;2023-07-02T06:03:55;9.10;;;3.00;;
3667;SDS011;24099;47.102;15.440;2023-07-02T06:06:23;4.80;;;2.95;;
3667;SDS011;24099;47.102;15.440;2023-07-02T06:08:53;4.45;;;2.67;;
3667;SDS011;24099;47.102;15.440;2023-07-02T06:11:21;4.55;;;2.83;;
3667;SDS011;24099;47.102;15.440;2023-07-02T06:13:51;4.05;;;2.70;;
3667;SDS011;24099;47.102;15.440;2023-07-02T06:16:20;4.35;;;2.80;;
3667;SDS011;24099;47.102;15.440;2023-07-02T06:18:50;5.15;;;2.83;;
3667;SDS011;24099;47.102;15.440;2023-07-02T06:21:24;3.65;;;2.63;;
3667;SDS011;24099;47.102;15.440;2023-07-02T06:23:58;3.40;;;2.63;;
3667;SDS011;24099;47.102;15.440;2023-07-02T06:26:27;4.22;;;2.60;;
3667;SDS011;24099;47.102;15.440;2023-07-02T06:29:34;6.40;;;2.60;;
3667;SDS011;24099;47.102;15.440;2023-07-02T06:32:06;3.78;;;2.60;;
3667;SDS011;24099;47.102;15.440;2023-07-02T06:35:28;5.07;;;2.88;;
3667;SDS011;24099;47.102;15.440;2023-07-02T06:41:38;6.18;;;2.70;;
3667;SDS011;24099;47.102;15.440;2023-07-02T06:48:36;4.20;;;2.65;;
3667;SDS011;24099;47.102;15.440;2023-07-02T06:50:42;4.50;;;2.95;;
3667;SDS011;24099;47.102;15.440;2023-07-02T06:53:10;6.10;;;3.20;;
3667;SDS011;24099;47.102;15.440;2023-07-02T06:55:38;5.35;;;3.13;;
3667;SDS011;24099;47.102;15.440;2023-07-02T06:58:11;5.28;;;3.00;;
3667;SDS011;24099;47.102;15.440;2023-07-02T07:00:39;5.18;;;3.30;;
3667;SDS011;24099;47.102;15.440;2023-07-02T07:03:10;5.20;;;3.10;;
3667;SDS011;24099;47.102;15.440;2023-07-02T07:05:37;3.40;;;2.70;;
3667;SDS011;24099;47.102;15.440;2023-07-02T07:08:09;5.68;;;3.03;;
3667;SDS011;24099;47.102;15.440;2023-07-02T07:10:37;4.85;;;3.30;;
3667;SDS011;24099;47.102;15.440;2023-07-02T07:13:04;5.63;;;2.90;;
3667;SDS011;24099;47.102;15.440;2023-07-02T07:15:32;4.78;;;2.83;;
3667;SDS011;24099;47.102;15.440;2023-07-02T07:18:00;4.57;;;2.55;;
3667;SDS011;24099;47.102;15.440;2023-07-02T07:20:28;2.30;;;2.10;;
3667;SDS011;24099;47.102;15.440;2023-07-02T07:22:55;4.43;;;2.60;;
3667;SDS011;24099;47.102;15.440;2023-07-02T07:25:30;2.65;;;2.33;;
3667;SDS011;24099;47.102;15.440;2023-07-02T07:27:59;3.33;;;2.13;;
3667;SDS011;24099;47.102;15.440;2023-07-02T07:30:26;1.98;;;1.58;;
3667;SDS011;24099;47.102;15.440;2023-07-02T07:32:55;2.65;;;2.13;;
3667;SDS011;24099;47.102;15.440;2023-07-02T07:35:58;2.22;;;1.73;;
3667;SDS011;24099;47.102;15.440;2023-07-02T07:38:25;3.40;;;2.00;;
3667;SDS011;24099;47.102;15.440;2023-07-02T07:40:54;2.58;;;2.00;;
3667;SDS011;24099;47.102;15.440;2023-07-02T07:43:22;6.57;;;2.40;;
3667;SDS011;24099;47.102;15.440;2023-07-02T07:45:50;4.13;;;2.38;;
3667;SDS011;24099;47.102;15.440;2023-07-02T07:48:18;3.97;;;2.40;;
3667;SDS011;24099;47.102;15.440;2023-07-02T07:50:46;2.90;;;2.03;;
3667;SDS011;24099;47.102;15.440;2023-07-02T07:53:14;3.33;;;1.88;;
3667;SDS011;24099;47.102;15.440;2023-07-02T07:55:41;4.45;;;2.28;;
3667;SDS011;24099;47.102;15.440;2023-07-02T07:58:10;3.13;;;1.80;;
3667;SDS011;24099;47.102;15.440;2023-07-02T08:00:38;2.08;;;1.65;;
3667;SDS011;24099;47.102;15.440;2023-07-02T08:03:06;3.05;;;2.03;;
3667;SDS011;24099;47.102;15.440;2023-07-02T08:05:33;2.90;;;1.85;;
3667;SDS011;24099;47.102;15.440;2023-07-02T08:08:01;3.40;;;2.10;;
3667;SDS011;24099;47.102;15.440;2023-07-02T08:10:29;4.22;;;1.83;;
3667;SDS011;24099;47.102;15.440;2023-07-02T08:12:56;3.75;;;1.35;;
3667;SDS011;24099;47.102;15.440;2023-07-02T08:15:25;2.55;;;1.80;;
3667;SDS011;24099;47.102;15.440;2023-07-02T08:17:53;3.60;;;2.08;;
3667;SDS011;24099;47.102;15.440;2023-07-02T08:20:23;3.17;;;1.40;;
3667;SDS011;24099;47.102;15.440;2023-07-02T08:22:51;2.55;;;1.70;;
3667;SDS011;24099;47.102;15.440;2023-07-02T08:25:19;2.20;;;1.85;;
3667;SDS011;24099;47.102;15.440;2023-07-02T08:27:47;3.00;;;1.67;;
3667;SDS011;24099;47.102;15.440;2023-07-02T08:30:16;2.10;;;1.65;;
3667;SDS011;24099;47.102;15.440;2023-07-02T08:32:46;1.83;;;1.42;;
3667;SDS011;24099;47.102;15.440;2023-07-02T08:35:18;1.98;;;1.70;;
3667;SDS011;24099;47.102;15.440;2023-07-02T08:37:46;1.17;;;1.00;;
3667;SDS011;24099;47.102;15.440;2023-07-02T08:40:17;0.98;;;0.82;;
3667;SDS011;24099;47.102;15.440;2023-07-02T08:42:54;1.92;;;1.13;;
3667;SDS011;24099;47.102;15.440;2023-07-02T08:45:36;1.95;;;1.20;;
3667;SDS011;24099;47.102;15.440;2023-07-02T08:48:19;3.40;;;1.00;;
3667;SDS011;24099;47.102;15.440;2023-07-02T08:51:44;1.08;;;0.95;;
3667;SDS011;24099;47.102;15.440;2023-07-02T08:54:12;1.13;;;1.00;;
3667;SDS011;24099;47.102;15.440;2023-07-02T08:56:43;1.23;;;1.00;;
3667;SDS011;24099;47.102;15.440;2023-07-02T08:59:13;0.60;;;0.50;;
3667;SDS011;24099;47.102;15.440;2023-07-02T09:01:47;0.68;;;0.68;;
3667;SDS011;24099;47.102;15.440;2023-07-02T09:04:23;0.75;;;0.63;;
3667;SDS011;24099;47.102;15.440;2023-07-02T09:07:02;0.70;;;0.70;;
3667;SDS011;24099;47.102;15.440;2023-07-02T09:09:33;0.88;;;0.60;;
3667;SDS011;24099;47.102;15.440;2023-07-02T09:12:29;1.73;;;0.60;;
3667;SDS011;24099;47.102;15.440;2023-07-02T09:14:58;1.10;;;0.68;;
3667;SDS011;24099;47.102;15.440;2023-07-02T09:17:35;0.50;;;0.50;;
3667;SDS011;24099;47.102;15.440;2023-07-02T09:20:05;0.30;;;0.30;;
3667;SDS011;24099;47.102;15.440;2023-07-02T09:22:34;1.35;;;0.30;;
3667;SDS011;24099;47.102;15.440;2023-07-02T09:25:02;0.50;;;0.50;;
3667;SDS011;24099;47.102;15.440;2023-07-02T09:27:33;1.02;;;0.90;;
3667;SDS011;24099;47.102;15.440;2023-07-02T09:30:05;0.55;;;0.50;;
3667;SDS011;24099;47.102;15.440;2023-07-02T09:32:42;0.95;;;0.50;;
3667;SDS011;24099;47.102;15.440;2023-07-02T09:35:12;1.00;;;0.60;;
3667;SDS011;24099;47.102;15.440;2023-07-02T09:37:41;0.57;;;0.52;;
3667;SDS011;24099;47.102;15.440;2023-07-02T09:40:17;0.55;;;0.50;;
3667;SDS011;24099;47.102;15.440;2023-07-02T09:42:46;0.50;;;0.50;;
3667;SDS011;24099;47.102;15.440;2023-07-02T09:45:18;0.45;;;0.40;;
3667;SDS011;24099;47.102;15.440;2023-07-02T09:47:47;0.50;;;0.50;;
3667;SDS011;24099;47.102;15.440;2023-07-02T09:50:18;0.20;;;0.20;;
3667;SDS011;24099;47.102;15.440;2023-07-02T09:52:46;0.60;;;0.60;;
3667;SDS011;24099;47.102;15.440;2023-07-02T09:55:14;0.55;;;0.52;;
3667;SDS011;24099;47.102;15.440;2023-07-02T09:57:43;2.97;;;0.47;;
3667;SDS011;24099;47.102;15.440;2023-07-02T10:00:12;0.43;;;0.43;;
3667;SDS011;24099;47.102;15.440;2023-07-02T10:02:40;0.80;;;0.50;;
3667;SDS011;24099;47.102;15.440;2023-07-02T10:05:08;0.45;;;0.45;;
3667;SDS011;24099;47.102;15.440;2023-07-02T10:07:37;1.00;;;0.65;;
3667;SDS011;24099;47.102;15.440;2023-07-02T10:10:12;1.50;;;0.70;;
3667;SDS011;24099;47.102;15.440;2023-07-02T10:12:45;0.40;;;0.40;;
3667;SDS011;24099;47.102;15.440;2023-07-02T10:15:23;0.57;;;0.57;;
3667;SDS011;24099;47.102;15.440;2023-07-02T10:17:55;2.22;;;1.45;;
3667;SDS011;24099;47.102;15.440;2023-07-02T10:20:33;0.57;;;0.57;;
3667;SDS011;24099;47.102;15.440;2023-07-02T10:23:15;0.88;;;0.82;;
3667;SDS011;24099;47.102;15.440;2023-07-02T10:25:48;1.45;;;1.10;;
3667;SDS011;24099;47.102;15.440;2023-07-02T10:28:18;0.65;;;0.38;;
3667;SDS011;24099;47.102;15.440;2023-07-02T10:31:19;1.38;;;0.52;;
3667;SDS011;24099;47.102;15.440;2023-07-02T10:33:47;1.02;;;0.43;;
3667;SDS011;24099;47.102;15.440;2023-07-02T10:36:53;0.40;;;0.40;;
3667;SDS011;24099;47.102;15.440;2023-07-02T10:39:09;0.93;;;0.50;;
3667;SDS011;24099;47.102;15.440;2023-07-02T10:41:36;0.60;;;0.60;;
3667;SDS011;24099;47.102;15.440;2023-07-02T10:44:06;1.30;;;0.85;;
3667;SDS011;24099;47.102;15.440;2023-07-02T10:46:34;0.50;;;0.50;;
3667;SDS011;24099;47.102;15.440;2023-07-02T10:49:01;0.50;;;0.50;;
3667;SDS011;24099;47.102;15.440;2023-07-02T10:51:30;0.50;;;0.50;;
3667;SDS011;24099;47.102;15.440;2023-07-02T10:53:58;0.50;;;0.50;;
3667;SDS011;24099;47.102;15.440;2023-07-02T10:56:27;0.52;;;0.52;;
3667;SDS011;24099;47.102;15.440;2023-07-02T10:58:58;0.50;;;0.50;;
3667;SDS011;24099;47.102;15.440;2023-07-02T11:01:27;0.57;;;0.57;;
3667;SDS011;24099;47.102;15.440;2023-07-02T11:03:56;1.13;;;0.43;;
3667;SDS011;24099;47.102;15.440;2023-07-02T11:06:25;0.50;;;0.50;;
3667;SDS011;24099;47.102;15.440;2023-07-02T11:09:26;0.52;;;0.52;;
3667;SDS011;24099;47.102;15.440;2023-07-02T11:11:58;0.93;;;0.60;;
3667;SDS011;24099;47.102;15.440;2023-07-02T11:14:27;0.45;;;0.45;;
3667;SDS011;24099;47.102;15.440;2023-07-02T11:16:55;0.70;;;0.40;;
3667;SDS011;24099;47.102;15.440;2023-07-02T11:19:26;0.60;;;0.50;;
3667;SDS011;24099;47.102;15.440;2023-07-02T11:21:54;0.50;;;0.50;;
3667;SDS011;24099;47.102;15.440;2023-07-02T11:24:30;0.50;;;0.50;;
3667;SDS011;24099;47.102;15.440;2023-07-02T11:26:59;0.30;;;0.30;;
3667;SDS011;24099;47.102;15.440;2023-07-02T11:29:28;0.40;;;0.40;;
3667;SDS011;24099;47.102;15.440;2023-07-02T11:32:05;0.30;;;0.30;;
3667;SDS011;24099;47.102;15.440;2023-07-02T11:34:52;0.40;;;0.40;;
3667;SDS011;24099;47.102;15.440;2023-07-02T11:37:20;0.40;;;0.40;;
3667;SDS011;24099;47.102;15.440;2023-07-02T11:39:49;0.30;;;0.30;;
3667;SDS011;24099;47.102;15.440;2023-07-02T11:42:18;0.50;;;0.50;;
3667;SDS011;24099;47.102;15.440;2023-07-02T11:44:49;0.32;;;0.32;;
3667;SDS011;24099;47.102;15.440;2023-07-02T11:47:17;0.50;;;0.50;;
3667;SDS011;24099;47.102;15.440;2023-07-02T11:49:45;1.20;;;0.73;;
3667;SDS011;24099;47.102;15.440;2023-07-02T11:52:19;2.20;;;0.80;;
3667;SDS011;24099;47.102;15.440;2023-07-02T11:54:48;0.50;;;0.50;;
3667;SDS011;24099;47.102;15.440;2023-07-02T11:57:16;0.70;;;0.70;;
3667;SDS011;24099;47.102;15.440;2023-07-02T11:59:45;0.70;;;0.70;;
3667;SDS011;24099;47.102;15.440;2023-07-02T12:02:16;0.52;;;0.50;;
3667;SDS011;24099;47.102;15.440;2023-07-02T12:04:43;0.63;;;0.60;;
3667;SDS011;24099;47.102;15.440;2023-07-02T12:07:14;0.50;;;0.40;;
3667;SDS011;24099;47.102;15.440;2023-07-02T12:09:42;0.40;;;0.40;;
3667;SDS011;24099;47.102;15.440;2023-07-02T12:12:12;0.32;;;0.32;;
3667;SDS011;24099;47.102;15.440;2023-07-02T12:14:51;0.50;;;0.50;;
3667;SDS011;24099;47.102;15.440;2023-07-02T12:17:20;1.38;;;0.52;;
3667;SDS011;24099;47.102;15.440;2023-07-02T12:19:48;0.52;;;0.52;;
3667;SDS011;24099;47.102;15.440;2023-07-02T12:22:16;0.60;;;0.60;;
3667;SDS011;24099;47.102;15.440;2023-07-02T12:25:46;0.47;;;0.47;;
3667;SDS011;24099;47.102;15.440;2023-07-02T12:28:29;0.63;;;0.57;;
3667;SDS011;24099;47.102;15.440;2023-07-02T12:31:20;0.50;;;0.50;;
3667;SDS011;24099;47.102;15.440;2023-07-02T12:33:54;0.60;;;0.60;;
3667;SDS011;24099;47.102;15.440;2023-07-02T12:36:27;1.02;;;0.50;;
3667;SDS011;24099;47.102;15.440;2023-07-02T12:38:54;0.40;;;0.40;;
3667;SDS011;24099;47.102;15.440;2023-07-02T12:41:23;0.88;;;0.70;;
3667;SDS011;24099;47.102;15.440;2023-07-02T12:43:50;0.50;;;0.50;;
3667;SDS011;24099;47.102;15.440;2023-07-02T12:50:15;0.50;;;0.50;;
3667;SDS011;24099;47.102;15.440;2023-07-02T12:52:56;0.40;;;0.40;;
3667;SDS011;24099;47.102;15.440;2023-07-02T12:55:32;2.20;;;0.50;;
3667;SDS011;24099;47.102;15.440;2023-07-02T12:58:23;0.40;;;0.35;;
3667;SDS011;24099;47.102;15.440;2023-07-02T13:00:51;0.82;;;0.50;;
3667;SDS011;24099;47.102;15.440;2023-07-02T13:11:20;0.30;;;0.30;;
3667;SDS011;24099;47.102;15.440;2023-07-02T13:13:53;0.50;;;0.50;;
3667;SDS011;24099;47.102;15.440;2023-07-02T13:16:23;2.05;;;0.50;;
3667;SDS011;24099;47.102;15.440;2023-07-02T13:18:51;0.30;;;0.30;;
3667;SDS011;24099;47.102;15.440;2023-07-02T13:21:20;0.40;;;0.40;;
3667;SDS011;24099;47.102;15.440;2023-07-02T13:23:49;0.47;;;0.47;;
3667;SDS011;24099;47.102;15.440;2023-07-02T13:26:18;0.32;;;0.32;;
3667;SDS011;24099;47.102;15.440;2023-07-02T13:28:51;0.65;;;0.60;;
3667;SDS011;24099;47.102;15.440;2023-07-02T13:31:19;0.50;;;0.50;;
3667;SDS011;24099;47.102;15.440;2023-07-02T13:33:47;1.13;;;0.57;;
3667;SDS011;24099;47.102;15.440;2023-07-02T13:36:20;1.55;;;0.50;;
3667;SDS011;24099;47.102;15.440;2023-07-02T13:38:48;0.60;;;0.60;;
3667;SDS011;24099;47.102;15.440;2023-07-02T13:41:21;0.88;;;0.68;;
3667;SDS011;24099;47.102;15.440;2023-07-02T13:43:49;2.03;;;0.80;;
3667;SDS011;24099;47.102;15.440;2023-07-02T13:46:17;1.20;;;0.70;;
3667;SDS011;24099;47.102;15.440;2023-07-02T13:48:45;0.75;;;0.60;;
3667;SDS011;24099;47.102;15.440;2023-07-02T13:51:18;0.70;;;0.70;;
3667;SDS011;24099;47.102;15.440;2023-07-02T13:53:46;0.80;;;0.70;;
3667;SDS011;24099;47.102;15.440;2023-07-02T13:56:14;0.50;;;0.50;;
3667;SDS011;24099;47.102;15.440;2023-07-02T14:01:32;0.65;;;0.60;;
3667;SDS011;24099;47.102;15.440;2023-07-02T14:04:01;0.70;;;0.70;;
3667;SDS011;24099;47.102;15.440;2023-07-02T14:06:29;4.57;;;1.08;;
3667;SDS011;24099;47.102;15.440;2023-07-02T14:08:56;1.48;;;1.17;;
3667;SDS011;24099;47.102;15.440;2023-07-02T14:11:34;1.63;;;1.10;;
3667;SDS011;24099;47.102;15.440;2023-07-02T14:14:02;1.55;;;1.00;;
3667;SDS011;24099;47.102;15.440;2023-07-02T14:16:31;1.38;;;0.80;;
3667;SDS011;24099;47.102;15.440;2023-07-02T14:19:06;0.95;;;0.80;;
3667;SDS011;24099;47.102;15.440;2023-07-02T14:21:38;1.33;;;0.90;;
3667;SDS011;24099;47.102;15.440;2023-07-02T14:24:26;1.20;;;0.73;;
3667;SDS011;24099;47.102;15.440;2023-07-02T14:26:58;1.60;;;0.75;;
3667;SDS011;24099;47.102;15.440;2023-07-02T14:29:28;2.97;;;1.10;;
3667;SDS011;24099;47.102;15.440;2023-07-02T14:32:24;0.90;;;0.90;;
3667;SDS011;24099;47.102;15.440;2023-07-02T14:34:53;0.90;;;0.90;;
3667;SDS011;24099;47.102;15.440;2023-07-02T14:37:32;1.27;;;0.85;;
3667;SDS011;24099;47.102;15.440;2023-07-02T14:40:00;0.88;;;0.88;;
3667;SDS011;24099;47.102;15.440;2023-07-02T14:42:29;1.45;;;0.75;;
3667;SDS011;24099;47.102;15.440;2023-07-02T14:45:00;2.53;;;1.15;;
3667;SDS011;24099;47.102;15.440;2023-07-02T14:47:33;1.58;;;1.13;;
3667;SDS011;24099;47.102;15.440;2023-07-02T14:50:11;1.15;;;1.00;;
3667;SDS011;24099;47.102;15.440;2023-07-02T14:52:42;1.70;;;1.10;;
3667;SDS011;24099;47.102;15.440;2023-07-02T14:55:10;1.20;;;1.05;;
3667;SDS011;24099;47.102;15.440;2023-07-02T14:57:47;1.30;;;1.10;;
3667;SDS011;24099;47.102;15.440;2023-07-02T15:00:19;1.50;;;1.10;;
3667;SDS011;24099;47.102;15.440;2023-07-02T15:02:48;1.20;;;1.10;;
3667;SDS011;24099;47.102;15.440;2023-07-02T15:05:17;1.90;;;1.35;;
3667;SDS011;24099;47.102;15.440;2023-07-02T15:07:59;2.05;;;1.13;;
3667;SDS011;24099;47.102;15.440;2023-07-02T15:10:28;1.45;;;1.30;;
3667;SDS011;24099;47.102;15.440;2023-07-02T15:12:56;1.25;;;1.15;;
3667;SDS011;24099;47.102;15.440;2023-07-02T15:15:26;1.77;;;1.20;;
3667;SDS011;24099;47.102;15.440;2023-07-02T15:17:57;1.33;;;1.17;;
3667;SDS011;24099;47.102;15.440;2023-07-02T15:20:28;2.40;;;1.35;;
3667;SDS011;24099;47.102;15.440;2023-07-02T15:22:56;1.00;;;0.90;;
3667;SDS011;24099;47.102;15.440;2023-07-02T15:25:27;1.25;;;0.98;;
3667;SDS011;24099;47.102;15.440;2023-07-02T15:27:55;1.42;;;1.25;;
3667;SDS011;24099;47.102;15.440;2023-07-02T15:30:25;1.35;;;1.23;;
3667;SDS011;24099;47.102;15.440;2023-07-02T15:33:03;1.23;;;1.10;;
3667;SDS011;24099;47.102;15.440;2023-07-02T15:35:35;2.05;;;1.15;;
3667;SDS011;24099;47.102;15.440;2023-07-02T15:38:03;1.30;;;1.20;;
3667;SDS011;24099;47.102;15.440;2023-07-02T15:40:42;4.75;;;1.27;;